Terminal Aerodrome Forecast
Issued by NWS

Home | Current Version | Previous Version | Text Only | Print | Product List | Glossary On
Versions: 1 2 3 4 5 6 7 8 9 10 11 12 13 14 15 16 17 18 19 20 21 22 23
982
FTUS43 KAPX 141130
TAFPLN
TAF
KPLN 141130Z 1412/1512 00000KT 6SM -SN BKN040
     FM141700 16006KT P6SM SCT035
     FM150600 16005KT P6SM OVC080
     FM151000 16006KT 6SM -SN SCT025 OVC040=

USA.gov is the U.S. government's official web portal to all federal, state and local government web resources and services.